Time;durP1;ratioP1;P1;durP2;ratioP2;P2;SDS_P1;SDS_P2;PMS_P1;PMS_P2;Temp;Humidity;BMP_temperature;BMP_pressure;BME280_temperature;BME280_humidity;BME280_pressure;Samples;Min_cycle;Max_cycle;Signal;HPM_P1;HPM_P2
2023/02/26 00:00:34;;;;;;;11.55;4.75;;;;;;;13.59;50.46;98146.13;4909431;29;20524;-92
2023/02/26 00:03:00;;;;;;;12.38;4.75;;;;;;;13.47;50.45;98118.97;4910440;29;20034;-94
2023/02/26 00:05:26;;;;;;;10.60;4.82;;;;;;;13.63;50.34;98138.19;4910117;29;20031;-94
2023/02/26 00:07:52;;;;;;;15.25;5.15;;;;;;;13.47;50.06;98113.56;4909890;29;20054;-94
2023/02/26 00:10:17;;;;;;;8.90;4.75;;;;;;;13.56;50.18;98140.59;4909638;29;20505;-93
2023/02/26 00:12:44;;;;;;;10.95;5.15;;;;;;;13.58;49.92;98131.03;4909365;29;20059;-94
2023/02/26 00:15:13;;;;;;;9.10;5.10;;;;;;;13.58;49.75;98135.66;4911104;29;20046;-94
2023/02/26 00:17:48;;;;;;;13.63;4.25;;;;;;;13.76;49.15;98150.75;4925656;29;20031;-94
2023/02/26 00:20:15;;;;;;;15.68;5.10;;;;;;;13.73;49.13;98143.28;4940778;29;20073;-95
2023/02/26 00:22:41;;;;;;;12.52;4.90;;;;;;;13.71;49.37;98153.63;4913380;29;20078;-94
2023/02/26 00:25:07;;;;;;;10.80;5.07;;;;;;;13.62;48.94;98142.81;4925210;29;20035;-94
2023/02/26 00:27:33;;;;;;;11.48;4.60;;;;;;;13.70;48.73;98152.81;4924778;29;20027;-93
2023/02/26 00:29:59;;;;;;;10.48;5.40;;;;;;;13.78;48.57;98166.66;4925116;29;20031;-95
2023/02/26 00:32:24;;;;;;;10.88;4.55;;;;;;;13.70;48.70;98141.22;4924485;29;20023;-95
2023/02/26 00:34:50;;;;;;;10.35;5.05;;;;;;;13.88;48.85;98166.34;4909073;29;20166;-94
2023/02/26 00:37:26;;;;;;;13.00;5.00;;;;;;;13.83;49.14;98166.50;4925142;29;20429;-93
2023/02/26 00:40:15;;;;;;;12.00;4.45;;;;;;;13.80;49.50;98153.59;4925806;29;20031;-93
2023/02/26 00:42:41;;;;;;;11.35;4.15;;;;;;;13.84;49.21;98157.25;4956682;29;20050;-94
2023/02/26 00:45:07;;;;;;;9.10;4.60;;;;;;;13.84;49.34;98151.84;4940188;29;20028;-93
2023/02/26 00:47:43;;;;;;;7.10;4.28;;;;;;;13.75;49.93;98160.75;4909031;29;20497;-94
2023/02/26 00:50:20;;;;;;;15.27;4.60;;;;;;;13.72;50.27;98161.41;4940714;29;20413;-95
2023/02/26 00:53:08;;;;;;;14.90;4.97;;;;;;;13.84;50.19;98168.09;4924703;29;20031;-94
2023/02/26 00:55:34;;;;;;;12.52;5.15;;;;;;;13.72;50.33;98147.09;4948673;29;20091;-94
2023/02/26 00:57:59;;;;;;;11.20;4.70;;;;;;;13.72;50.38;98157.94;4924213;29;20027;-94
2023/02/26 01:00:25;;;;;;;13.82;4.50;;;;;;;13.72;50.48;98147.09;4908530;29;20482;-93
2023/02/26 01:02:51;;;;;;;12.65;4.55;;;;;;;13.70;50.31;98141.22;4924254;29;20117;-93
2023/02/26 01:05:17;;;;;;;13.48;4.53;;;;;;;13.74;50.44;98151.06;4923983;29;20061;-94
2023/02/26 01:07:58;;;;;;;12.80;4.63;;;;;;;13.79;50.45;98168.25;4940150;28;20038;-94
2023/02/26 01:10:24;;;;;;;10.48;4.63;;;;;;;13.73;50.70;98144.06;4956513;29;20046;-94
2023/02/26 01:12:49;;;;;;;12.23;5.65;;;;;;;13.64;50.88;98147.91;4924591;29;20035;-94
2023/02/26 01:15:15;;;;;;;6.97;4.30;;;;;;;13.64;50.72;98140.56;4908212;29;20035;-94
2023/02/26 01:18:10;;;;;;;11.52;4.18;;;;;;;13.74;50.43;98153.78;4908604;29;20102;-94
2023/02/26 01:20:56;;;;;;;7.70;4.03;;;;;;;13.66;49.91;98138.34;4924733;29;20027;-93
2023/02/26 01:23:24;;;;;;;13.35;4.55;;;;;;;13.55;49.93;98131.69;4941941;29;20055;-94
2023/02/26 01:25:54;;;;;;;8.80;4.85;;;;;;;13.62;49.82;98131.97;4924069;29;20178;-94
2023/02/26 01:28:20;;;;;;;11.57;4.70;;;;;;;13.61;49.74;98135.00;4924676;29;20031;-94
2023/02/26 01:30:45;;;;;;;9.75;4.50;;;;;;;13.71;49.84;98140.09;4923740;29;20094;-93
2023/02/26 01:33:34;;;;;;;11.50;5.50;;;;;;;13.83;49.57;98164.59;4908032;29;20501;-94
2023/02/26 01:36:07;;;;;;;9.10;4.18;;;;;;;13.85;49.00;98151.53;4939156;29;20126;-94
2023/02/26 01:38:38;;;;;;;10.32;4.22;;;;;;;13.91;48.95;98160.28;4939525;29;20035;-94
2023/02/26 01:41:31;;;;;;;10.80;4.50;;;;;;;13.94;48.85;98165.88;4939606;29;20061;-95
2023/02/26 01:44:14;;;;;;;8.48;4.60;;;;;;;14.01;48.05;98164.56;4955434;29;20074;-94
2023/02/26 01:46:58;;;;;;;11.88;4.65;;;;;;;14.05;47.98;98163.63;4955115;28;20130;-93
2023/02/26 01:49:23;;;;;;;7.18;3.72;;;;;;;14.04;47.60;98159.31;4955246;29;20031;-93
2023/02/26 01:51:51;;;;;;;11.20;4.25;;;;;;;14.00;47.27;98150.25;4923706;29;20474;-95
2023/02/26 01:54:21;;;;;;;14.23;5.28;;;;;;;13.99;46.59;98145.16;4939509;28;20035;-93
2023/02/26 01:56:49;;;;;;;7.28;4.15;;;;;;;14.08;46.80;98141.31;4908453;29;20020;-94
2023/02/26 01:59:15;;;;;;;16.50;4.38;;;;;;;14.11;45.62;98167.75;4939223;29;20031;-94
2023/02/26 02:01:42;;;;;;;14.23;5.18;;;;;;;14.24;45.47;98178.72;4908331;29;20527;-94
2023/02/26 02:04:11;;;;;;;9.98;3.95;;;;;;;14.22;45.70;98154.66;4923447;29;20035;-94
2023/02/26 02:06:36;;;;;;;12.38;5.68;;;;;;;14.37;45.79;98169.59;4922857;29;20062;-94
2023/02/26 02:09:05;;;;;;;11.13;4.15;;;;;;;14.37;45.30;98168.81;4923279;29;20059;-94
2023/02/26 02:11:30;;;;;;;11.00;4.35;;;;;;;14.41;45.42;98180.59;4923222;29;20117;-94
2023/02/26 02:14:12;;;;;;;14.95;4.47;;;;;;;14.45;45.09;98176.91;4908064;29;20141;-94
2023/02/26 02:16:49;;;;;;;11.88;4.63;;;;;;;14.40;45.13;98176.28;4939058;29;20093;-95
2023/02/26 02:19:21;;;;;;;13.85;4.85;;;;;;;14.52;44.75;98181.81;4922825;29;20063;-94
2023/02/26 02:21:59;;;;;;;8.63;3.75;;;;;;;14.63;44.08;98187.69;4954763;29;20038;-94
2023/02/26 02:24:32;;;;;;;11.25;4.00;;;;;;;14.58;43.92;98177.84;4958203;28;20110;-93
2023/02/26 02:26:59;;;;;;;14.40;4.63;;;;;;;14.65;44.18;98188.97;4942237;28;20181;-94
2023/02/26 02:29:24;;;;;;;15.15;4.28;;;;;;;14.65;44.14;98193.59;4942373;28;20477;-94
2023/02/26 02:32:05;;;;;;;15.38;4.70;;;;;;;14.62;44.41;98178.00;4957795;28;20026;-94
2023/02/26 02:34:40;;;;;;;11.43;4.00;;;;;;;14.60;44.46;98191.84;4926838;28;20118;-93
2023/02/26 02:37:16;;;;;;;11.40;4.30;;;;;;;14.62;44.87;98199.66;4942654;28;20449;-94
2023/02/26 02:40:06;;;;;;;12.38;4.13;;;;;;;14.44;45.75;98177.22;4943003;28;20062;-94
2023/02/26 02:42:46;;;;;;;10.52;4.03;;;;;;;14.30;46.51;98175.50;4934568;28;20039;-94
2023/02/26 02:45:34;;;;;;;9.70;4.30;;;;;;;14.46;46.89;98188.53;4928237;28;20035;-94
2023/02/26 02:48:34;;;;;;;14.85;4.70;;;;;;;14.31;47.17;98168.97;4944794;28;20038;-94
2023/02/26 02:51:05;;;;;;;13.13;3.70;;;;;;;14.32;47.31;98191.44;4938599;28;20086;-94
2023/02/26 02:53:36;;;;;;;13.10;4.10;;;;;;;14.35;47.53;98209.75;4941572;28;20023;-93
2023/02/26 02:56:04;;;;;;;9.80;4.07;;;;;;;14.36;47.53;98214.06;4926012;28;20027;-94
2023/02/26 02:58:31;;;;;;;8.50;3.67;;;;;;;14.22;47.28;98194.50;4943216;28;20141;-94
2023/02/26 03:00:59;;;;;;;12.45;4.50;;;;;;;14.33;47.68;98210.06;4929593;28;20089;-93
2023/02/26 03:03:35;;;;;;;10.25;3.90;;;;;;;14.35;47.41;98217.88;4945619;28;20481;-94
2023/02/26 03:06:01;;;;;;;8.70;4.03;;;;;;;14.30;47.19;98208.00;4945470;28;20038;-94
2023/02/26 03:08:28;;;;;;;10.93;4.05;;;;;;;14.34;46.96;98219.00;4929471;28;20038;-94
2023/02/26 03:10:54;;;;;;;8.45;3.83;;;;;;;14.38;47.12;98227.25;4945337;28;20027;-94
2023/02/26 03:13:21;;;;;;;12.57;4.78;;;;;;;14.35;46.80;98220.56;4929128;28;20034;-94
2023/02/26 03:16:18;;;;;;;10.77;4.43;;;;;;;14.33;46.37;98231.72;4945443;28;20035;-94
2023/02/26 03:18:55;;;;;;;10.48;4.50;;;;;;;14.48;46.66;98254.00;4947534;28;20065;-94
2023/02/26 03:21:39;;;;;;;11.90;3.95;;;;;;;14.40;46.36;98233.16;4961370;28;20065;-93
2023/02/26 03:24:09;;;;;;;11.10;3.85;;;;;;;14.47;46.28;98245.09;4930963;28;20070;-94
2023/02/26 03:26:53;;;;;;;12.35;3.88;;;;;;;14.38;46.58;98235.38;4945455;28;20409;-94
2023/02/26 03:29:54;;;;;;;9.07;3.60;;;;;;;14.46;46.42;98240.78;4930082;28;20030;-94
2023/02/26 03:32:28;;;;;;;7.45;3.72;;;;;;;14.40;47.14;98242.09;4884318;29;20065;-94
2023/02/26 03:35:07;;;;;;;15.35;4.80;;;;;;;14.40;47.44;98238.56;4918518;28;20069;-94
2023/02/26 03:37:38;;;;;;;9.85;4.13;;;;;;;14.27;48.07;98224.88;4944887;28;20029;-93
2023/02/26 03:40:10;;;;;;;11.38;4.82;;;;;;;14.33;48.45;98236.34;4929553;28;20542;-93
2023/02/26 03:43:02;;;;;;;11.13;4.43;;;;;;;14.34;48.53;98243.38;4945098;28;20026;-94
2023/02/26 03:45:30;;;;;;;11.27;4.32;;;;;;;14.26;49.24;98241.47;4947857;28;20035;-94
2023/02/26 03:47:56;;;;;;;12.98;4.07;;;;;;;14.17;48.96;98236.03;4944764;28;20027;-94
2023/02/26 03:50:35;;;;;;;14.23;4.50;;;;;;;14.31;49.04;98250.19;4929058;28;20030;-94
2023/02/26 03:53:02;;;;;;;11.02;4.15;;;;;;;14.14;49.35;98240.19;4944496;28;20027;-94
2023/02/26 03:55:33;;;;;;;13.10;4.20;;;;;;;14.12;49.56;98225.38;4944683;28;20486;-93
2023/02/26 03:57:59;;;;;;;9.85;4.13;;;;;;;14.27;49.41;98249.25;4929230;28;20019;-94
2023/02/26 04:00:26;;;;;;;17.30;4.65;;;;;;;14.21;49.47;98239.69;4928172;28;20118;-94
2023/02/26 04:02:59;;;;;;;12.75;5.15;;;;;;;14.30;49.10;98248.63;4944483;28;20031;-94
2023/02/26 04:05:30;;;;;;;11.30;4.25;;;;;;;14.31;49.41;98239.38;4943786;28;20408;-95
2023/02/26 04:07:56;;;;;;;10.80;4.53;;;;;;;14.13;49.50;98216.94;4944643;28;20101;-94
2023/02/26 04:10:28;;;;;;;13.95;4.75;;;;;;;14.32;49.34;98251.00;4927873;28;20026;-94
2023/02/26 04:12:53;;;;;;;14.07;4.30;;;;;;;14.21;49.24;98228.88;4944101;28;20038;-94
2023/02/26 04:15:19;;;;;;;16.20;4.80;;;;;;;14.15;49.55;98228.25;4927981;28;20070;-94
2023/02/26 04:17:44;;;;;;;12.48;4.18;;;;;;;14.18;49.36;98232.22;4928315;28;20452;-94
2023/02/26 04:20:10;;;;;;;11.73;3.40;;;;;;;14.24;49.48;98236.38;4928114;28;20035;-94
2023/02/26 04:22:39;;;;;;;13.50;4.13;;;;;;;14.06;49.34;98207.72;4940152;29;20086;-93
2023/02/26 04:25:04;;;;;;;10.90;4.20;;;;;;;14.20;49.33;98212.97;4925309;29;20027;-93
2023/02/26 04:27:30;;;;;;;17.50;4.25;;;;;;;14.25;49.08;98210.06;4924529;29;20034;-94
2023/02/26 04:29:55;;;;;;;14.88;4.13;;;;;;;14.29;49.38;98222.66;4924488;29;20037;-93
2023/02/26 04:32:21;;;;;;;14.68;4.10;;;;;;;14.23;49.36;98206.91;4908371;29;20034;-94
2023/02/26 04:34:46;;;;;;;11.00;4.22;;;;;;;14.27;49.35;98207.84;4924659;29;20027;-94
2023/02/26 04:37:12;;;;;;;13.15;4.38;;;;;;;14.35;49.59;98215.94;4924813;29;20098;-95
2023/02/26 04:39:38;;;;;;;16.17;4.40;;;;;;;14.29;49.34;98216.44;4925131;29;20098;-94
2023/02/26 04:42:03;;;;;;;8.73;4.10;;;;;;;14.29;49.61;98224.56;4925388;29;20026;-94
2023/02/26 04:44:30;;;;;;;6.63;3.95;;;;;;;14.33;49.64;98237.13;4924832;29;20122;-93
2023/02/26 04:46:56;;;;;;;8.20;3.78;;;;;;;14.25;49.97;98229.03;4908727;29;20023;-95
2023/02/26 04:49:21;;;;;;;12.10;3.97;;;;;;;14.24;50.58;98232.88;4924428;29;20035;-94
2023/02/26 04:51:47;;;;;;;10.65;4.60;;;;;;;14.18;50.61;98228.72;4908081;29;20027;-94
2023/02/26 04:54:12;;;;;;;9.85;4.05;;;;;;;14.17;50.87;98238.75;4925184;29;20023;-94
2023/02/26 04:56:38;;;;;;;12.90;4.25;;;;;;;14.23;51.13;98242.88;4908938;29;20023;-94
2023/02/26 04:59:04;;;;;;;14.48;4.22;;;;;;;14.08;52.26;98237.97;4924580;29;20031;-94
2023/02/26 05:01:29;;;;;;;9.35;4.13;;;;;;;14.10;52.13;98227.63;4924204;29;20027;-94
2023/02/26 05:03:55;;;;;;;14.65;4.15;;;;;;;14.20;52.31;98243.53;4924309;29;20033;-94
2023/02/26 05:06:20;;;;;;;14.80;4.20;;;;;;;14.18;52.76;98240.34;4923998;29;20027;-94
2023/02/26 05:08:46;;;;;;;9.40;4.35;;;;;;;14.22;52.77;98249.41;4925229;29;20466;-94
2023/02/26 05:11:11;;;;;;;16.13;4.07;;;;;;;14.14;53.26;98244.81;4924137;29;20027;-94
2023/02/26 05:13:37;;;;;;;10.43;4.43;;;;;;;14.12;52.75;98228.09;4924915;29;20030;-94
2023/02/26 05:16:03;;;;;;;14.93;4.30;;;;;;;14.22;53.18;98256.75;4924672;29;20031;-94
2023/02/26 05:18:28;;;;;;;12.00;4.22;;;;;;;14.12;53.22;98247.03;4924545;29;20027;-95
2023/02/26 05:20:54;;;;;;;15.90;3.88;;;;;;;14.13;53.05;98245.91;4923658;29;20120;-94
2023/02/26 05:23:20;;;;;;;14.55;4.25;;;;;;;14.15;53.48;98249.09;4923986;29;20058;-94
2023/02/26 05:25:46;;;;;;;17.90;4.35;;;;;;;14.15;53.38;98257.22;4924194;29;20114;-93
2023/02/26 05:28:12;;;;;;;13.10;4.57;;;;;;;14.03;53.42;98230.81;4924128;29;20031;-93
2023/02/26 05:30:38;;;;;;;15.85;3.97;;;;;;;14.11;53.44;98254.38;4924054;29;20031;-94
2023/02/26 05:33:04;;;;;;;17.55;4.25;;;;;;;14.15;53.38;98257.22;4924344;29;20030;-94
2023/02/26 05:35:29;;;;;;;14.68;4.00;;;;;;;14.15;53.21;98255.31;4924151;29;20035;-94
2023/02/26 05:37:55;;;;;;;17.17;4.20;;;;;;;14.04;53.51;98243.22;4908661;29;20031;-95
2023/02/26 05:40:21;;;;;;;7.53;3.25;;;;;;;14.11;53.34;98256.25;4923468;29;20034;-94
2023/02/26 05:42:47;;;;;;;12.98;4.32;;;;;;;14.19;53.11;98262.78;4923969;29;20398;-94
2023/02/26 05:45:13;;;;;;;18.05;3.90;;;;;;;14.21;53.12;98271.41;4923565;29;20035;-94
2023/02/26 05:47:38;;;;;;;17.55;4.28;;;;;;;14.18;53.01;98264.72;4924238;29;20064;-94
2023/02/26 05:50:04;;;;;;;11.38;3.80;;;;;;;14.25;52.75;98264.22;4923529;29;20027;-94
2023/02/26 05:52:30;;;;;;;8.38;3.15;;;;;;;14.29;52.85;98265.97;4907894;29;20038;-94
2023/02/26 05:54:56;;;;;;;11.15;3.90;;;;;;;14.29;52.83;98274.09;4923392;29;20449;-93
2023/02/26 05:57:22;;;;;;;9.00;3.50;;;;;;;14.20;52.98;98267.09;4923325;29;20454;-95
2023/02/26 05:59:47;;;;;;;13.18;4.88;;;;;;;14.13;52.82;98254.84;4923044;29;20027;-95
2023/02/26 06:02:16;;;;;;;17.23;5.30;;;;;;;14.19;53.38;98260.09;4924622;29;20031;-92
2023/02/26 06:04:42;;;;;;;16.35;4.30;;;;;;;14.30;53.20;98278.41;4924139;29;20121;-93
2023/02/26 06:07:07;;;;;;;14.27;3.50;;;;;;;14.37;53.30;98285.25;4923824;29;20521;-93
2023/02/26 06:09:33;;;;;;;12.00;3.60;;;;;;;14.42;53.36;98283.19;4923164;29;20066;-93
2023/02/26 06:11:58;;;;;;;17.13;4.28;;;;;;;14.28;54.22;98293.38;4923791;29;20066;-93
2023/02/26 06:14:24;;;;;;;12.02;5.13;;;;;;;14.25;54.21;98285.88;4923667;29;20035;-94
2023/02/26 06:16:49;;;;;;;19.23;3.70;;;;;;;14.29;54.64;98284.91;4923247;29;20081;-91
2023/02/26 06:19:15;;;;;;;15.00;4.05;;;;;;;14.27;54.63;98289.84;4922804;29;20027;-92
2023/02/26 06:21:40;;;;;;;18.70;4.95;;;;;;;14.34;54.75;98303.72;4923087;29;20027;-92
2023/02/26 06:24:06;;;;;;;9.77;4.60;;;;;;;14.36;54.93;98306.13;4923835;29;20118;-92
2023/02/26 06:26:32;;;;;;;14.70;6.38;;;;;;;14.33;55.06;98310.25;4924894;29;20118;-91
2023/02/26 06:28:57;;;;;;;19.67;5.18;;;;;;;14.12;55.95;98315.50;4922939;29;20029;-91
2023/02/26 06:31:23;;;;;;;10.85;5.20;;;;;;;14.23;55.98;98318.69;4923308;29;20031;-93
2023/02/26 06:33:48;;;;;;;16.05;6.88;;;;;;;14.29;56.16;98339.06;4925987;29;20034;-92
2023/02/26 06:36:14;;;;;;;13.27;5.53;;;;;;;14.30;55.92;98313.59;4926939;29;20050;-93
2023/02/26 06:38:39;;;;;;;17.88;5.43;;;;;;;14.38;55.95;98313.91;4927298;29;20031;-93
2023/02/26 06:41:05;;;;;;;16.45;5.53;;;;;;;14.38;55.77;98309.31;4926789;29;20035;-92
2023/02/26 06:43:31;;;;;;;11.73;4.65;;;;;;;14.36;56.03;98314.25;4927353;29;20027;-93
2023/02/26 06:45:59;;;;;;;18.48;5.45;;;;;;;14.46;55.75;98313.91;4911001;29;20035;-94
2023/02/26 06:48:26;;;;;;;15.48;5.18;;;;;;;14.42;55.84;98306.75;4926857;29;20441;-94
2023/02/26 06:50:51;;;;;;;14.55;5.07;;;;;;;14.44;56.03;98318.84;4911500;29;20066;-93
2023/02/26 06:53:17;;;;;;;20.67;8.52;;;;;;;14.50;55.53;98317.56;4927318;29;20457;-94
2023/02/26 06:55:44;;;;;;;17.40;5.10;;;;;;;14.56;55.44;98310.09;5069976;23;20048;-93
2023/02/26 06:58:10;;;;;;;13.38;4.25;;;;;;;14.52;55.80;98345.13;4923954;29;20036;-94
2023/02/26 07:00:36;;;;;;;11.25;4.25;;;;;;;14.61;55.34;98328.09;4909485;29;20038;-93
2023/02/26 07:03:02;;;;;;;18.65;4.72;;;;;;;14.65;55.07;98320.91;4923958;29;20122;-94
2023/02/26 07:05:28;;;;;;;14.98;4.55;;;;;;;14.73;54.84;98323.63;4923129;29;20042;-93
2023/02/26 07:07:54;;;;;;;14.77;5.35;;;;;;;14.70;55.09;98331.59;4923177;29;20031;-93
2023/02/26 07:10:20;;;;;;;14.75;4.20;;;;;;;14.84;54.55;98315.19;4922917;29;20043;-95
2023/02/26 07:12:47;;;;;;;11.35;3.60;;;;;;;14.88;54.20;98295.22;4922938;29;20061;-94
2023/02/26 07:15:13;;;;;;;11.73;3.55;;;;;;;14.98;54.14;98298.69;4923317;29;20059;-95
2023/02/26 07:17:38;;;;;;;12.00;3.80;;;;;;;14.90;54.24;98303.00;4922618;29;20027;-94
2023/02/26 07:20:08;;;;;;;11.82;4.15;;;;;;;15.04;53.43;98309.03;4923306;29;20048;-95
2023/02/26 07:22:33;;;;;;;11.93;4.15;;;;;;;15.16;53.31;98308.34;4923253;29;20095;-94
2023/02/26 07:24:59;;;;;;;15.93;3.78;;;;;;;15.09;53.33;98289.09;4922402;29;20450;-93
2023/02/26 07:27:25;;;;;;;17.42;3.83;;;;;;;15.22;53.72;98303.56;4923081;29;20035;-94
2023/02/26 07:29:50;;;;;;;15.45;4.05;;;;;;;15.32;53.34;98314.84;4922376;29;20031;-94
2023/02/26 07:32:16;;;;;;;11.63;3.90;;;;;;;15.29;53.14;98295.69;4922836;29;20502;-94
2023/02/26 07:34:41;;;;;;;11.52;3.47;;;;;;;15.31;52.88;98286.09;4922720;29;20035;-93
2023/02/26 07:37:07;;;;;;;8.40;3.55;;;;;;;15.39;52.80;98270.94;4922014;29;20028;-94
2023/02/26 07:39:33;;;;;;;19.67;4.68;;;;;;;15.42;52.86;98264.03;4923585;29;20043;-94
2023/02/26 07:41:58;;;;;;;20.98;4.05;;;;;;;15.47;53.02;98263.88;4922374;29;20035;-95
2023/02/26 07:44:24;;;;;;;18.38;4.53;;;;;;;15.52;52.45;98266.38;4921921;29;20121;-94
2023/02/26 07:46:49;;;;;;;9.70;3.55;;;;;;;15.58;52.68;98262.34;4922445;29;20500;-95
2023/02/26 07:49:15;;;;;;;12.65;5.03;;;;;;;15.56;52.29;98265.41;4923332;29;20470;-95
2023/02/26 07:51:44;;;;;;;15.75;3.90;;;;;;;15.66;52.13;98250.66;4923178;29;20028;-94
2023/02/26 07:54:11;;;;;;;11.57;3.60;;;;;;;15.79;51.28;98254.25;4923891;29;20059;-94
2023/02/26 07:56:38;;;;;;;12.65;4.05;;;;;;;15.78;51.20;98243.75;4925303;29;20130;-95
2023/02/26 07:59:04;;;;;;;17.40;3.80;;;;;;;15.68;50.99;98242.19;4910243;29;20023;-94
2023/02/26 08:01:29;;;;;;;13.63;4.07;;;;;;;15.72;50.14;98235.00;4909442;29;20038;-94
2023/02/26 08:03:55;;;;;;;14.32;3.45;;;;;;;15.90;49.60;98233.75;4910242;29;20046;-95
2023/02/26 08:06:21;;;;;;;15.73;4.03;;;;;;;15.84;49.36;98205.22;4909525;29;20031;-94
2023/02/26 08:08:47;;;;;;;11.23;3.47;;;;;;;16.00;49.33;98226.31;4940826;29;20054;-94
2023/02/26 08:11:13;;;;;;;13.60;3.72;;;;;;;16.19;48.44;98229.38;4941404;29;20027;-93
2023/02/26 08:13:41;;;;;;;10.75;3.03;;;;;;;16.25;48.77;98229.94;4925241;29;20031;-94
2023/02/26 08:16:16;;;;;;;10.52;3.50;;;;;;;16.05;48.64;98204.41;4925385;29;20029;-94
2023/02/26 08:18:42;;;;;;;14.20;3.65;;;;;;;16.00;49.36;98212.75;4910426;29;20086;-94
2023/02/26 08:21:07;;;;;;;10.73;3.58;;;;;;;16.00;49.13;98189.13;4910828;29;20437;-94
2023/02/26 08:23:33;;;;;;;16.60;4.03;;;;;;;16.27;48.58;98193.19;4909364;29;20027;-96
2023/02/26 08:26:02;;;;;;;11.93;3.60;;;;;;;16.27;48.45;98190.47;4909573;29;20035;-95
2023/02/26 08:28:27;;;;;;;13.40;3.33;;;;;;;16.30;48.39;98208.78;4925404;29;20062;-95
2023/02/26 08:30:53;;;;;;;17.73;4.32;;;;;;;16.31;47.65;98202.25;4924770;29;20031;-94
2023/02/26 08:33:18;;;;;;;11.88;4.28;;;;;;;16.35;47.09;98196.91;4925721;29;20042;-94
2023/02/26 08:35:44;;;;;;;12.77;3.72;;;;;;;16.39;47.37;98214.13;4909997;29;20035;-93
2023/02/26 08:38:10;;;;;;;14.50;3.70;;;;;;;16.40;46.83;98209.53;4909526;29;20081;-94
2023/02/26 08:40:36;;;;;;;10.98;3.78;;;;;;;16.40;46.71;98206.81;4940537;29;20055;-94
2023/02/26 08:43:02;;;;;;;18.98;4.38;;;;;;;16.54;46.19;98199.91;4911644;29;20089;-93
2023/02/26 08:45:28;;;;;;;18.73;5.00;;;;;;;16.48;46.69;98189.63;4925592;29;20031;-94
2023/02/26 08:47:54;;;;;;;10.18;3.22;;;;;;;16.41;46.65;98173.84;4909011;29;20027;-94
2023/02/26 08:50:20;;;;;;;14.90;4.95;;;;;;;16.50;46.53;98184.63;4909173;29;20058;-95
2023/02/26 08:52:46;;;;;;;13.93;4.00;;;;;;;16.44;46.63;98181.34;4925150;29;20119;-94
2023/02/26 08:55:11;;;;;;;19.83;3.90;;;;;;;16.66;46.26;98195.63;4909145;28;20031;-94
2023/02/26 08:57:37;;;;;;;14.05;5.05;;;;;;;16.55;46.09;98178.97;4907770;29;20544;-93
2023/02/26 09:00:04;;;;;;;13.30;4.40;;;;;;;16.84;46.03;98207.91;4924730;29;20035;-94
2023/02/26 09:02:29;;;;;;;20.85;4.75;;;;;;;16.88;45.51;98184.34;4909694;29;20551;-95
2023/02/26 09:04:55;;;;;;;15.38;4.40;;;;;;;17.05;44.78;98186.06;4908630;29;20035;-94
2023/02/26 09:07:20;;;;;;;16.40;5.97;;;;;;;17.16;45.10;98197.25;4908499;29;20027;-94
2023/02/26 09:09:46;;;;;;;17.08;3.90;;;;;;;17.10;44.88;98166.81;4908462;29;20027;-93
2023/02/26 09:12:13;;;;;;;15.20;3.90;;;;;;;17.19;44.12;98174.03;4908432;29;20031;-94
2023/02/26 09:14:38;;;;;;;15.32;3.85;;;;;;;17.42;43.56;98196.13;4908618;29;20037;-94
2023/02/26 09:17:04;;;;;;;13.10;4.05;;;;;;;17.49;43.65;98186.25;4907593;29;20095;-93
2023/02/26 09:19:29;;;;;;;13.73;4.22;;;;;;;17.44;43.95;98185.69;4908080;29;20038;-93
2023/02/26 09:21:55;;;;;;;15.38;3.83;;;;;;;17.47;43.31;98180.34;4907938;29;20417;-93
2023/02/26 09:24:20;;;;;;;23.27;4.25;;;;;;;17.54;43.26;98174.31;4908109;29;20086;-93
2023/02/26 09:26:46;;;;;;;14.40;3.90;;;;;;;17.60;42.68;98175.69;4923542;29;20034;-94
2023/02/26 09:29:13;;;;;;;18.98;4.32;;;;;;;17.72;42.63;98161.22;4924090;29;20027;-93
2023/02/26 09:31:39;;;;;;;13.45;3.72;;;;;;;17.85;42.06;98195.47;4908282;29;20053;-92
2023/02/26 09:34:04;;;;;;;17.95;3.88;;;;;;;17.78;42.08;98166.09;4923392;29;20085;-95
2023/02/26 09:36:30;;;;;;;14.90;3.72;;;;;;;17.98;41.74;98183.38;4907466;29;20113;-94
2023/02/26 09:38:56;;;;;;;15.65;3.70;;;;;;;17.90;41.84;98164.47;4923130;29;20421;-92
2023/02/26 09:41:55;;;;;;;13.73;3.17;;;;;;;17.89;41.80;98184.69;4907490;29;20038;-93
2023/02/26 09:44:24;;;;;;;17.77;3.65;;;;;;;17.96;42.16;98171.25;4908141;29;20074;-94
2023/02/26 09:47:10;;;;;;;13.70;3.30;;;;;;;18.06;41.49;98189.06;4912592;29;20490;-94
2023/02/26 09:50:10;;;;;;;13.60;3.78;;;;;;;18.08;41.36;98187.56;4924715;29;20031;-94
2023/02/26 09:53:04;;;;;;;15.68;4.13;;;;;;;18.07;41.31;98196.06;4926388;29;20027;-95
2023/02/26 09:55:47;;;;;;;12.18;3.83;;;;;;;18.13;40.83;98191.97;4925184;29;20055;-93
2023/02/26 09:58:31;;;;;;;15.50;3.67;;;;;;;17.98;41.61;98188.84;4924132;29;20034;-94
2023/02/26 10:01:21;;;;;;;12.15;3.40;;;;;;;18.11;41.40;98205.13;4923588;29;20027;-94
2023/02/26 10:04:06;;;;;;;14.30;3.33;;;;;;;18.03;41.14;98204.13;4955475;29;20121;-95
2023/02/26 10:06:41;;;;;;;11.75;3.67;;;;;;;18.16;40.87;98226.69;4940160;28;20059;-95
2023/02/26 10:09:20;;;;;;;19.65;3.95;;;;;;;18.30;40.51;98235.25;4940224;29;20027;-95
2023/02/26 10:12:01;;;;;;;12.25;3.35;;;;;;;18.44;40.85;98255.84;4942957;29;20050;-95
2023/02/26 10:14:53;;;;;;;14.25;3.55;;;;;;;18.39;40.60;98256.91;4909518;29;20027;-95
2023/02/26 10:17:24;;;;;;;12.50;2.85;;;;;;;18.41;40.55;98251.91;4934628;29;20039;-93
2023/02/26 10:20:02;;;;;;;19.35;3.65;;;;;;;18.48;40.46;98264.94;4924623;29;20039;-93
2023/02/26 10:22:32;;;;;;;14.90;3.35;;;;;;;18.47;40.27;98268.78;4940693;29;20027;-95
2023/02/26 10:25:06;;;;;;;17.33;3.13;;;;;;;18.46;40.03;98248.13;4939299;29;20031;-95
2023/02/26 10:28:00;;;;;;;22.67;3.58;;;;;;;18.49;40.14;98263.78;4908478;29;20035;-93
2023/02/26 10:30:26;;;;;;;14.50;3.20;;;;;;;18.55;40.01;98243.28;4939799;29;20070;-94
2023/02/26 10:33:03;;;;;;;22.30;3.75;;;;;;;18.47;40.21;98242.34;4956294;29;20482;-94
2023/02/26 10:35:31;;;;;;;12.60;2.85;;;;;;;18.31;40.24;98249.69;4940283;29;20027;-94
2023/02/26 10:37:58;;;;;;;22.05;3.63;;;;;;;18.17;40.34;98244.63;4908186;29;20034;-93
2023/02/26 10:40:33;;;;;;;20.65;3.47;;;;;;;18.29;40.62;98246.50;4907570;29;20035;-94
2023/02/26 10:43:20;;;;;;;12.75;3.92;;;;;;;18.38;40.43;98234.28;4940043;29;20054;-94
2023/02/26 10:46:10;;;;;;;23.67;4.00;;;;;;;18.33;40.46;98258.28;4955187;29;20489;-94
2023/02/26 10:48:46;;;;;;;12.15;3.60;;;;;;;18.32;40.86;98230.25;4955148;29;20105;-94
2023/02/26 10:51:18;;;;;;;14.82;4.15;;;;;;;18.23;40.08;98226.88;4940274;29;20054;-94
2023/02/26 10:53:58;;;;;;;16.10;2.97;;;;;;;18.25;40.74;98221.88;4908384;29;20027;-94
2023/02/26 10:56:32;;;;;;;15.50;3.60;;;;;;;18.05;41.11;98231.03;4923756;29;20066;-94
2023/02/26 10:59:06;;;;;;;12.23;2.88;;;;;;;18.16;41.17;98253.94;4908214;29;20035;-93
2023/02/26 11:01:32;;;;;;;8.85;3.17;;;;;;;18.21;41.11;98242.78;4924301;29;20023;-95
2023/02/26 11:04:05;;;;;;;16.08;3.55;;;;;;;18.20;41.08;98260.28;4923613;29;20033;-94
2023/02/26 11:06:43;;;;;;;12.60;3.58;;;;;;;18.11;41.31;98265.84;4908957;29;20027;-93
2023/02/26 11:09:38;;;;;;;11.27;3.30;;;;;;;18.04;41.61;98262.16;4924487;29;20054;-94
2023/02/26 11:12:05;;;;;;;12.73;3.40;;;;;;;17.71;42.41;98244.03;4922576;29;20035;-94
2023/02/26 11:14:35;;;;;;;14.00;3.00;;;;;;;17.96;41.84;98259.19;4907642;29;20023;-94
2023/02/26 11:17:03;;;;;;;7.97;2.70;;;;;;;18.01;41.73;98241.03;4938936;29;20023;-94
2023/02/26 11:19:51;;;;;;;13.85;3.10;;;;;;;17.89;41.76;98234.50;4909048;29;20027;-94
2023/02/26 11:22:19;;;;;;;12.82;3.08;;;;;;;18.07;41.45;98247.81;4912701;29;20085;-94
2023/02/26 11:24:46;;;;;;;13.05;3.78;;;;;;;17.91;41.61;98226.00;4927139;29;20474;-95
2023/02/26 11:27:35;;;;;;;9.05;3.03;;;;;;;18.19;41.29;98255.97;4911136;29;20032;-94
2023/02/26 11:30:18;;;;;;;14.68;3.38;;;;;;;18.37;41.04;98243.63;4921192;29;20050;-95
2023/02/26 11:32:49;;;;;;;9.68;3.33;;;;;;;18.31;40.71;98227.88;4942103;29;20039;-94
2023/02/26 11:35:16;;;;;;;10.83;3.00;;;;;;;18.11;40.65;98243.28;4911030;29;20066;-94
2023/02/26 11:37:58;;;;;;;15.35;4.00;;;;;;;18.24;40.91;98247.56;4910875;29;20030;-94
2023/02/26 11:40:50;;;;;;;12.45;3.00;;;;;;;18.22;40.72;98229.94;4911596;29;20106;-94